createdAt,value
2023-03-16T00:02:04.579Z,74.50
2023-03-16T00:07:12.023Z,44.80
2023-03-16T00:12:20.328Z,47.40
2023-03-16T00:17:23.342Z,51.60
2023-03-16T00:22:30.048Z,52.40
2023-03-16T00:27:33.042Z,47.80
2023-03-16T00:32:39.310Z,40.60
2023-03-16T00:37:43.818Z,43.20
2023-03-16T00:42:46.829Z,36.50
2023-03-16T00:47:50.207Z,38.70
2023-03-16T00:52:53.811Z,37.90
2023-03-16T00:57:56.772Z,33.30
2023-03-16T01:02:59.845Z,26.40
2023-03-16T01:08:02.869Z,25.80
2023-03-16T01:13:06.016Z,33.60
2023-03-16T01:18:08.978Z,33.70
2023-03-16T01:23:11.966Z,36.50
2023-03-16T01:28:14.915Z,30.70
2023-03-16T01:33:18.347Z,27.40
2023-03-16T01:38:22.184Z,26.50
2023-03-16T01:43:29.130Z,22.00
2023-03-16T01:48:43.960Z,21.40
2023-03-16T01:53:53.561Z,20.20
2023-03-16T01:59:01.660Z,22.70
2023-03-16T02:04:27.513Z,21.60
2023-03-16T02:09:32.240Z,26.60
2023-03-16T02:14:35.336Z,28.50
2023-03-16T02:20:12.092Z,29.00
2023-03-16T02:25:18.784Z,19.00
2023-03-16T02:30:23.106Z,21.20
2023-03-16T02:35:26.421Z,23.70
2023-03-16T02:40:34.561Z,19.70
2023-03-16T02:45:55.487Z,16.80
2023-03-16T02:50:58.825Z,19.00
2023-03-16T02:56:02.988Z,13.50
2023-03-16T03:01:06.376Z,15.80
2023-03-16T03:06:10.198Z,16.00
2023-03-16T03:11:13.242Z,19.00
2023-03-16T03:16:16.553Z,19.50
2023-03-16T03:21:20.109Z,23.10
2023-03-16T03:26:24.639Z,19.00
2023-03-16T03:31:27.559Z,16.60
2023-03-16T03:36:30.712Z,11.30
2023-03-16T03:41:34.254Z,13.00
2023-03-16T03:46:37.275Z,15.90
2023-03-16T03:51:41.315Z,18.00
2023-03-16T03:56:44.330Z,17.00
2023-03-16T04:01:47.399Z,16.10
2023-03-16T04:06:51.597Z,14.30
2023-03-16T04:11:57.638Z,14.20
2023-03-16T04:17:00.778Z,24.40
2023-03-16T04:22:03.894Z,22.50
2023-03-16T04:27:06.913Z,18.40
2023-03-16T04:32:11.527Z,16.20
2023-03-16T04:37:14.513Z,19.10
2023-03-16T04:42:17.687Z,17.90
2023-03-16T04:47:20.650Z,19.40
2023-03-16T04:52:23.635Z,16.90
2023-03-16T04:57:26.638Z,18.40
2023-03-16T05:02:29.621Z,16.40
2023-03-16T05:07:32.824Z,17.30
2023-03-16T05:12:35.953Z,16.70
2023-03-16T05:17:39.169Z,20.10
2023-03-16T05:22:45.336Z,28.70
2023-03-16T05:27:52.125Z,31.80
2023-03-16T05:32:57.962Z,38.50
2023-03-16T05:38:01.253Z,34.40
2023-03-16T05:43:04.762Z,27.10
2023-03-16T05:48:07.879Z,29.40
2023-03-16T05:53:11.008Z,28.60
2023-03-16T05:58:14.158Z,40.60
2023-03-16T06:03:17.718Z,47.00
2023-03-16T06:08:21.171Z,42.80
2023-03-16T06:13:25.940Z,31.20
2023-03-16T06:18:31.227Z,35.20
2023-03-16T06:23:37.274Z,50.20
2023-03-16T06:28:42.425Z,47.00
2023-03-16T06:33:48.203Z,28.40
2023-03-16T06:38:52.893Z,28.90
2023-03-16T06:43:58.027Z,31.60
2023-03-16T06:49:02.521Z,20.10
2023-03-16T06:54:08.265Z,12.80
2023-03-16T06:59:13.030Z,18.80
2023-03-16T07:04:18.637Z,12.70
2023-03-16T07:09:23.686Z,10.20
2023-03-16T07:22:22.370Z,20.60
2023-03-16T07:27:25.647Z,29.30
2023-03-16T07:32:28.760Z,23.20
2023-03-16T07:37:32.571Z,22.50
2023-03-16T07:42:37.128Z,18.00
2023-03-16T07:47:40.439Z,16.60
2023-03-16T07:52:44.380Z,26.60
2023-03-16T07:57:48.517Z,17.70
2023-03-16T08:02:53.093Z,23.10
2023-03-16T08:07:57.670Z,26.20
2023-03-16T08:13:03.322Z,20.00
2023-03-16T08:18:10.446Z,15.10
2023-03-16T08:23:15.896Z,12.10
2023-03-16T08:28:21.883Z,24.20
2023-03-16T08:33:26.316Z,28.80
2023-03-16T08:38:29.523Z,22.20
2023-03-16T08:43:33.823Z,16.30
2023-03-16T08:48:36.867Z,13.90
2023-03-16T08:53:40.059Z,18.50
2023-03-16T08:58:47.606Z,20.90
2023-03-16T09:03:51.656Z,34.30
2023-03-16T09:08:56.339Z,27.60
2023-03-16T09:14:00.527Z,35.30
2023-03-16T09:19:03.677Z,28.80
2023-03-16T09:24:08.991Z,23.70
2023-03-16T09:29:13.678Z,21.70
2023-03-16T09:34:16.933Z,22.40
2023-03-16T09:39:20.814Z,22.00
2023-03-16T09:44:40.204Z,20.00
2023-03-16T09:49:49.391Z,22.80
2023-03-16T09:55:31.537Z,13.80
2023-03-16T10:01:00.087Z,20.60
2023-03-16T10:11:46.462Z,16.10
2023-03-16T10:16:55.457Z,20.10
2023-03-16T10:22:10.060Z,18.70
2023-03-16T10:27:28.939Z,13.90
2023-03-16T10:37:38.993Z,19.60
2023-03-16T10:42:42.592Z,20.70
2023-03-16T10:47:45.964Z,22.60
2023-03-16T10:52:50.534Z,12.90
2023-03-16T10:57:56.577Z,12.70
2023-03-16T11:03:01.432Z,22.00
2023-03-16T11:08:23.010Z,10.00
2023-03-16T11:13:36.007Z,14.00
2023-03-16T11:18:45.664Z,12.60
2023-03-16T11:23:56.380Z,15.90
2023-03-16T11:29:21.090Z,14.00
2023-03-16T11:34:30.888Z,20.90
2023-03-16T11:39:47.764Z,16.80
2023-03-16T11:45:23.333Z,13.40
2023-03-16T11:50:52.985Z,14.30
2023-03-16T11:56:30.877Z,12.30
2023-03-16T12:02:06.188Z,8.90
2023-03-16T12:07:59.115Z,9.50
2023-03-16T12:14:06.107Z,13.40
2023-03-16T12:19:42.902Z,9.30
2023-03-16T12:24:49.476Z,9.90
2023-03-16T12:30:10.526Z,9.30
2023-03-16T12:35:41.906Z,10.30
2023-03-16T12:41:02.721Z,9.70
2023-03-16T12:46:30.704Z,8.90
2023-03-16T12:51:41.536Z,12.00
2023-03-16T12:56:49.542Z,7.90
2023-03-16T13:01:59.136Z,13.30
2023-03-16T13:07:16.289Z,9.20
2023-03-16T13:12:38.593Z,6.10
2023-03-16T13:17:42.122Z,8.60
2023-03-16T13:23:07.712Z,8.30
2023-03-16T13:28:17.775Z,10.30
2023-03-16T13:33:38.434Z,11.50
2023-03-16T13:38:41.812Z,14.10
2023-03-16T13:43:46.660Z,11.60
2023-03-16T13:48:51.707Z,12.10
2023-03-16T13:53:55.237Z,9.10
2023-03-16T13:58:59.669Z,9.90
2023-03-16T14:04:13.716Z,13.90
2023-03-16T14:09:25.865Z,8.00
2023-03-16T14:14:37.168Z,12.80
2023-03-16T14:19:52.416Z,7.40
2023-03-16T14:25:00.878Z,9.10
2023-03-16T14:30:24.766Z,13.70
2023-03-16T14:35:55.637Z,9.20
2023-03-16T14:41:15.541Z,8.60
2023-03-16T14:46:42.491Z,7.50
2023-03-16T14:51:48.358Z,10.00
2023-03-16T14:56:55.020Z,5.90
2023-03-16T15:02:00.259Z,6.80
2023-03-16T15:07:26.143Z,9.60
2023-03-16T15:12:29.246Z,9.40
2023-03-16T15:17:32.883Z,5.20
2023-03-16T15:22:39.635Z,7.00
2023-03-16T15:27:43.725Z,9.00
2023-03-16T15:32:47.028Z,9.10
2023-03-16T15:37:50.517Z,4.20
2023-03-16T15:42:54.247Z,5.30
2023-03-16T15:47:57.440Z,3.70
2023-03-16T15:53:07.243Z,5.80
2023-03-16T15:58:25.675Z,5.70
2023-03-16T16:03:29.496Z,5.40
2023-03-16T16:08:32.707Z,7.70
2023-03-16T16:13:44.533Z,14.00
2023-03-16T16:18:48.942Z,17.50
2023-03-16T16:23:53.094Z,23.10
2023-03-16T16:29:00.868Z,29.10
2023-03-16T16:34:05.659Z,29.30
2023-03-16T16:39:10.267Z,20.70
2023-03-16T16:44:24.538Z,27.50
2023-03-16T16:49:31.202Z,26.40
2023-03-16T16:54:36.912Z,16.40
2023-03-16T16:59:40.213Z,11.80
2023-03-16T17:04:43.343Z,15.80
2023-03-16T17:09:46.840Z,21.10
2023-03-16T17:14:50.892Z,11.30
2023-03-16T17:19:53.873Z,14.70
2023-03-16T17:24:58.737Z,14.30
2023-03-16T17:30:03.376Z,19.90
2023-03-16T17:35:15.349Z,20.20
2023-03-16T17:40:23.764Z,37.50
2023-03-16T17:45:28.921Z,47.00
2023-03-16T17:50:34.183Z,76.40
2023-03-16T17:55:38.876Z,39.10
2023-03-16T18:00:42.887Z,27.20
2023-03-16T18:05:46.917Z,18.30
2023-03-16T18:10:57.912Z,12.80
2023-03-16T18:16:03.465Z,9.90
2023-03-16T18:21:07.201Z,10.90
2023-03-16T18:26:11.650Z,14.50
2023-03-16T18:31:28.105Z,16.60
2023-03-16T18:36:35.769Z,13.90
2023-03-16T18:41:38.930Z,11.30
2023-03-16T18:46:42.508Z,11.60
2023-03-16T18:51:51.554Z,14.80
2023-03-16T18:56:56.299Z,12.40
2023-03-16T19:01:59.821Z,12.20
2023-03-16T19:07:05.643Z,16.70
2023-03-16T19:12:16.250Z,14.10
2023-03-16T19:17:19.451Z,16.80
2023-03-16T19:22:24.195Z,19.60
2023-03-16T19:27:38.570Z,15.80
2023-03-16T19:32:41.711Z,13.00
2023-03-16T19:37:45.906Z,10.60
2023-03-16T19:42:51.167Z,10.60
2023-03-16T19:47:54.272Z,11.80
2023-03-16T19:53:00.270Z,9.90
2023-03-16T19:58:07.661Z,89.90
2023-03-16T20:03:12.723Z,116.60
2023-03-16T20:08:36.223Z,41.60
2023-03-16T20:13:39.715Z,32.60
2023-03-16T20:18:44.044Z,22.40
2023-03-16T20:23:47.456Z,18.50
2023-03-16T20:28:52.370Z,14.30
2023-03-16T20:33:55.720Z,8.40
2023-03-16T20:38:58.919Z,6.90
2023-03-16T20:44:03.481Z,18.80
2023-03-16T20:49:22.999Z,16.30
2023-03-16T20:54:26.165Z,16.20
2023-03-16T20:59:30.423Z,21.30
2023-03-16T21:04:33.634Z,16.00
2023-03-16T21:09:36.706Z,28.10
2023-03-16T21:14:41.145Z,31.70
2023-03-16T21:19:44.316Z,28.70
2023-03-16T21:24:47.774Z,46.40
2023-03-16T21:29:51.285Z,27.80
2023-03-16T21:34:56.730Z,37.30
2023-03-16T21:40:01.266Z,63.30
2023-03-16T21:45:05.722Z,47.50
2023-03-16T21:50:23.733Z,35.10
2023-03-16T21:55:29.721Z,14.80
2023-03-16T22:00:33.476Z,19.50
2023-03-16T22:05:39.960Z,21.40
2023-03-16T22:10:43.279Z,15.30
2023-03-16T22:15:49.711Z,22.90
2023-03-16T22:20:53.005Z,19.50
2023-03-16T22:25:57.093Z,28.40
2023-03-16T22:31:03.462Z,36.40
2023-03-16T22:36:20.617Z,60.60
2023-03-16T22:41:24.128Z,83.20
2023-03-16T22:46:29.779Z,94.20
2023-03-16T22:51:37.172Z,86.50
2023-03-16T22:56:45.133Z,62.10
2023-03-16T23:01:50.625Z,67.50
2023-03-16T23:06:54.917Z,73.20
2023-03-16T23:11:59.658Z,45.50
2023-03-16T23:17:02.976Z,48.80
2023-03-16T23:22:07.544Z,62.00
2023-03-16T23:27:22.503Z,32.90
2023-03-16T23:32:26.792Z,42.50
2023-03-16T23:37:29.839Z,48.10
2023-03-16T23:42:32.947Z,45.70
2023-03-16T23:47:36.156Z,45.30
2023-03-16T23:52:39.375Z,57.10
2023-03-16T23:57:42.832Z,45.10
